Time;durP1;ratioP1;P1;durP2;ratioP2;P2;SDS_P1;SDS_P2;PMS_P1;PMS_P2;Temp;Humidity;BMP_temperature;BMP_pressure;BME280_temperature;BME280_humidity;BME280_pressure;Samples;Min_cycle;Max_cycle;Signal;HPM_P1;HPM_P2
2022/04/22 00:00:15;;;;;;;5.38;3.00;;;;;;;15.84;42.06;100811.16;5140037;27;20044;-71
2022/04/22 00:02:43;;;;;;;11.73;3.25;;;;;;;15.81;42.21;100812.50;5147326;27;20070;-71
2022/04/22 00:05:11;;;;;;;6.70;2.88;;;;;;;15.80;42.48;100804.63;5151999;27;20051;-71
2022/04/22 00:07:39;;;;;;;6.03;2.80;;;;;;;15.76;42.50;100801.59;5144826;27;20074;-72
2022/04/22 00:10:09;;;;;;;5.38;3.58;;;;;;;15.77;42.47;100803.22;5141961;27;20043;-72
2022/04/22 00:12:37;;;;;;;5.80;3.08;;;;;;;15.74;42.75;100798.34;5144442;27;20047;-72
2022/04/22 00:15:07;;;;;;;7.00;3.35;;;;;;;15.74;42.96;100794.81;5151533;27;20043;-72
2022/04/22 00:17:36;;;;;;;7.32;3.25;;;;;;;15.73;42.77;100795.88;5133823;27;20077;-72
2022/04/22 00:20:04;;;;;;;7.30;4.28;;;;;;;15.71;42.84;100801.56;5151666;27;20043;-71
2022/04/22 00:22:32;;;;;;;6.38;2.88;;;;;;;15.70;42.67;100799.09;5136758;27;20047;-71
2022/04/22 00:24:59;;;;;;;5.13;3.22;;;;;;;15.69;43.04;100797.47;5128601;27;20106;-70
2022/04/22 00:27:27;;;;;;;8.40;3.65;;;;;;;15.68;42.76;100793.94;5138277;27;20054;-71
2022/04/22 00:29:55;;;;;;;7.60;3.20;;;;;;;15.65;43.21;100791.75;5138947;27;20063;-71
2022/04/22 00:32:22;;;;;;;7.28;3.70;;;;;;;15.62;43.20;100792.25;5148498;27;20118;-70
2022/04/22 00:34:51;;;;;;;7.68;3.00;;;;;;;15.59;43.05;100788.19;5139452;27;20484;-71
2022/04/22 00:37:19;;;;;;;8.75;2.83;;;;;;;15.59;43.42;100790.91;5137394;27;20074;-71
2022/04/22 00:39:47;;;;;;;7.28;3.00;;;;;;;15.56;43.33;100785.16;5145262;27;20107;-71
2022/04/22 00:42:14;;;;;;;6.65;3.42;;;;;;;15.55;43.49;100783.53;5144588;27;20073;-70
2022/04/22 00:44:42;;;;;;;6.20;3.60;;;;;;;15.53;43.04;100786.47;5161134;27;20386;-70
2022/04/22 00:47:10;;;;;;;7.55;3.95;;;;;;;15.48;43.96;100778.31;5139533;27;20464;-70
2022/04/22 00:49:38;;;;;;;6.82;3.13;;;;;;;15.47;43.58;100776.66;5150413;27;20087;-70
2022/04/22 00:52:09;;;;;;;10.73;3.90;;;;;;;15.45;43.62;100776.13;5142893;27;20055;-71
2022/04/22 00:54:37;;;;;;;4.88;3.25;;;;;;;15.44;43.71;100769.06;5148647;27;20165;-72
2022/04/22 00:57:06;;;;;;;6.85;3.83;;;;;;;15.39;44.06;100765.47;5144688;27;20478;-71
2022/04/22 00:59:36;;;;;;;6.03;3.70;;;;;;;15.41;44.07;100768.75;5153577;27;20062;-71
2022/04/22 01:02:04;;;;;;;5.45;3.17;;;;;;;15.27;44.15;100742.09;5149213;27;20502;-71
2022/04/22 01:10:06;;;;;;;5.40;3.80;;;;;;;15.34;43.98;100768.97;5144478;27;20074;-71
2022/04/22 01:12:34;;;;;;;7.05;4.13;;;;;;;15.33;44.35;100763.78;5157489;27;20093;-71
2022/04/22 01:15:02;;;;;;;6.38;3.92;;;;;;;15.25;44.21;100746.94;5145596;27;20165;-71
2022/04/22 01:17:31;;;;;;;6.95;4.13;;;;;;;15.30;44.46;100751.59;5147076;27;20086;-71
2022/04/22 01:19:59;;;;;;;9.88;3.78;;;;;;;15.28;44.33;100753.72;5143359;27;20047;-70
2022/04/22 01:22:28;;;;;;;7.75;4.10;;;;;;;15.27;44.30;100755.63;5149927;27;20047;-71
2022/04/22 01:24:59;;;;;;;7.28;4.22;;;;;;;15.21;44.71;100745.81;5142207;27;20440;-71
2022/04/22 01:27:29;;;;;;;8.95;4.20;;;;;;;15.23;44.45;100750.97;5141135;27;20079;-71
2022/04/22 01:29:58;;;;;;;10.82;3.80;;;;;;;15.22;44.45;100747.44;5154887;27;20047;-71
2022/04/22 01:32:27;;;;;;;7.57;4.53;;;;;;;15.21;44.56;100747.69;5145950;27;20130;-71
2022/04/22 01:34:55;;;;;;;7.55;4.10;;;;;;;15.21;44.24;100753.13;5143526;27;20047;-72
2022/04/22 01:37:23;;;;;;;8.60;4.88;;;;;;;15.21;44.85;100753.13;5144604;27;20051;-72
2022/04/22 01:39:52;;;;;;;7.03;4.25;;;;;;;15.19;44.55;100744.44;5137780;27;20365;-71
2022/04/22 01:42:20;;;;;;;7.68;3.72;;;;;;;15.17;44.62;100743.88;5141452;27;20129;-71
2022/04/22 01:44:49;;;;;;;6.20;4.05;;;;;;;15.17;44.94;100747.38;5156118;27;20410;-71
2022/04/22 01:47:17;;;;;;;6.97;4.47;;;;;;;15.16;45.06;100750.34;5146020;27;20119;-70
2022/04/22 01:49:45;;;;;;;7.15;4.13;;;;;;;15.14;45.27;100741.66;5144639;27;20046;-71
2022/04/22 01:52:13;;;;;;;6.00;3.92;;;;;;;15.12;45.17;100751.94;5140805;27;20471;-71
2022/04/22 01:54:41;;;;;;;9.65;4.80;;;;;;;15.12;44.64;100757.34;5145458;27;20083;-70
2022/04/22 01:57:10;;;;;;;10.52;4.90;;;;;;;15.09;45.48;100747.84;5156092;27;20069;-70
2022/04/22 01:59:38;;;;;;;11.27;4.32;;;;;;;15.08;45.70;100750.81;5141873;27;20062;-72
2022/04/22 02:02:06;;;;;;;7.88;4.22;;;;;;;15.04;45.55;100750.50;5147426;27;20042;-71
2022/04/22 02:04:34;;;;;;;7.57;4.18;;;;;;;15.04;45.38;100747.78;5150297;27;20115;-72
2022/04/22 02:07:03;;;;;;;7.57;4.60;;;;;;;14.99;45.52;100739.59;5153124;27;20047;-72
2022/04/22 02:09:31;;;;;;;5.78;4.03;;;;;;;15.02;45.47;100747.22;5143309;27;20071;-71
2022/04/22 02:11:59;;;;;;;8.13;4.28;;;;;;;15.00;45.97;100753.97;5137691;28;20516;-72
2022/04/22 02:14:28;;;;;;;8.55;4.32;;;;;;;14.97;45.43;100752.56;5142112;28;20082;-72
2022/04/22 02:16:56;;;;;;;5.07;3.80;;;;;;;14.97;45.35;100744.47;5142440;27;20047;-71
2022/04/22 02:19:29;;;;;;;11.13;4.50;;;;;;;14.91;45.44;100735.47;5157335;27;20480;-71
2022/04/22 02:21:57;;;;;;;7.35;4.40;;;;;;;14.93;45.95;100744.16;5147932;27;20365;-71
2022/04/22 02:24:25;;;;;;;7.07;4.38;;;;;;;14.91;45.84;100740.88;5148731;27;20082;-72
2022/04/22 02:29:40;;;;;;;5.90;4.05;;;;;;;14.91;45.85;100735.47;5142014;27;20047;-71
2022/04/22 02:32:08;;;;;;;9.30;4.30;;;;;;;14.90;46.05;100743.84;5136542;27;20038;-70
2022/04/22 02:34:36;;;;;;;6.50;4.13;;;;;;;14.88;45.90;100735.97;5150082;27;20480;-71
2022/04/22 02:37:05;;;;;;;7.47;4.68;;;;;;;14.87;46.04;100734.34;5139629;27;20059;-71
2022/04/22 02:39:33;;;;;;;7.57;3.92;;;;;;;14.86;45.80;100732.69;5134804;27;20087;-70
2022/04/22 02:47:33;;;;;;;7.75;3.95;;;;;;;14.80;46.22;100733.72;5136564;27;20456;-71
2022/04/22 02:50:00;;;;;;;7.57;4.50;;;;;;;14.79;46.34;100729.38;5133450;28;20054;-71
2022/04/22 02:52:28;;;;;;;8.45;4.97;;;;;;;14.77;46.09;100728.81;5143118;28;20089;-71
2022/04/22 02:54:56;;;;;;;7.20;5.25;;;;;;;14.76;46.63;100729.88;5136136;27;20075;-71
2022/04/22 02:57:24;;;;;;;6.50;4.63;;;;;;;14.77;46.54;100726.09;5144445;27;20476;-71
2022/04/22 02:59:53;;;;;;;7.70;5.18;;;;;;;14.75;46.71;100722.81;5141145;28;20086;-72
2022/04/22 03:02:21;;;;;;;5.80;4.13;;;;;;;14.74;46.66;100723.06;5149004;27;20058;-71
2022/04/22 03:04:49;;;;;;;9.73;5.40;;;;;;;14.73;46.52;100719.56;5158720;27;20488;-72
2022/04/22 03:07:16;;;;;;;10.50;4.75;;;;;;;14.68;46.83;100713.25;5142181;27;20127;-71
2022/04/22 03:09:45;;;;;;;6.30;4.68;;;;;;;14.71;46.55;100719.00;5159714;27;20082;-71
2022/04/22 03:12:14;;;;;;;8.15;4.68;;;;;;;14.64;46.35;100710.25;5144850;27;20111;-71
2022/04/22 03:14:43;;;;;;;9.35;5.13;;;;;;;14.68;46.40;100719.50;5145408;27;20051;-71
2022/04/22 03:17:13;;;;;;;7.93;4.70;;;;;;;14.67;47.10;100714.34;5154611;27;20372;-71
2022/04/22 03:19:40;;;;;;;7.63;5.32;;;;;;;14.65;47.10;100710.00;5155043;27;20065;-71
2022/04/22 03:22:08;;;;;;;6.47;4.35;;;;;;;14.64;46.60;100707.53;5144143;27;20123;-71
2022/04/22 03:24:36;;;;;;;8.68;5.63;;;;;;;14.59;47.14;100699.38;5149048;27;20145;-71
2022/04/22 03:27:05;;;;;;;7.45;5.03;;;;;;;14.61;46.64;100708.88;5155168;27;20043;-71
2022/04/22 03:29:35;;;;;;;7.43;4.88;;;;;;;14.49;46.86;100691.13;5144809;27;20043;-72
2022/04/22 03:32:03;;;;;;;7.53;4.50;;;;;;;14.59;47.02;100697.47;5134327;27;20480;-71
2022/04/22 03:34:32;;;;;;;8.00;5.40;;;;;;;14.57;47.10;100698.78;5147097;27;20399;-71
2022/04/22 03:37:01;;;;;;;8.02;5.10;;;;;;;14.55;47.25;100695.53;5142678;27;20048;-70
2022/04/22 03:39:28;;;;;;;6.90;4.72;;;;;;;14.54;46.88;100699.31;5143213;27;20043;-70
2022/04/22 03:41:57;;;;;;;9.23;5.32;;;;;;;14.50;47.53;100695.47;5157352;27;20117;-71
2022/04/22 03:44:25;;;;;;;9.30;5.15;;;;;;;14.49;47.29;100696.53;5147924;27;20086;-71
2022/04/22 03:46:53;;;;;;;9.35;5.45;;;;;;;14.47;47.19;100696.78;5150218;27;20081;-70
2022/04/22 03:49:21;;;;;;;7.90;5.78;;;;;;;14.46;47.26;100705.16;5135047;27;20050;-72
2022/04/22 03:51:50;;;;;;;7.90;4.93;;;;;;;14.42;47.36;100695.91;5143550;27;20078;-71
2022/04/22 03:54:22;;;;;;;7.40;4.50;;;;;;;14.43;46.83;100698.34;5152174;27;20043;-71
2022/04/22 03:59:35;;;;;;;6.47;5.10;;;;;;;14.40;47.07;100690.72;5151091;27;20069;-71
2022/04/22 04:02:03;;;;;;;9.35;5.53;;;;;;;14.38;47.21;100692.03;5151015;27;20397;-72
2022/04/22 04:04:31;;;;;;;8.38;5.10;;;;;;;14.36;47.68;100691.47;5148483;27;20120;-71
2022/04/22 04:07:01;;;;;;;8.27;5.50;;;;;;;14.23;47.80;100674.53;5145692;27;20047;-71
2022/04/22 04:17:45;;;;;;;6.03;4.63;;;;;;;14.27;47.67;100694.59;5143310;27;20042;-72
2022/04/22 04:23:18;;;;;;;8.48;5.80;;;;;;;14.26;47.67;100689.44;5150589;27;20050;-71
2022/04/22 04:25:48;;;;;;;11.27;6.38;;;;;;;14.25;47.59;100685.91;5153290;27;20134;-72
2022/04/22 04:28:17;;;;;;;12.00;6.45;;;;;;;14.25;47.72;100685.09;5132009;27;20086;-71
2022/04/22 04:30:46;;;;;;;10.40;5.70;;;;;;;14.22;47.78;100680.19;5125013;27;20046;-72
2022/04/22 04:33:14;;;;;;;9.38;6.00;;;;;;;14.22;48.08;100681.00;5143402;27;20048;-70
2022/04/22 04:35:46;;;;;;;9.85;5.72;;;;;;;14.09;47.83;100664.34;5148320;27;20086;-70
2022/04/22 04:38:16;;;;;;;7.15;5.70;;;;;;;14.21;47.70;100692.91;5145660;27;20057;-71
2022/04/22 04:40:44;;;;;;;10.73;6.20;;;;;;;14.20;48.36;100688.56;5138487;27;20043;-71
2022/04/22 04:43:12;;;;;;;9.13;5.93;;;;;;;14.19;47.84;100689.63;5149942;27;20552;-71
2022/04/22 04:45:40;;;;;;;7.10;6.03;;;;;;;14.18;48.47;100685.28;5160699;27;20074;-71
2022/04/22 04:48:08;;;;;;;10.10;6.40;;;;;;;14.15;47.96;100687.66;5139645;27;20049;-65
2022/04/22 04:50:36;;;;;;;10.85;6.28;;;;;;;14.16;48.66;100687.41;5141304;27;20047;-65
2022/04/22 04:53:04;;;;;;;8.80;6.13;;;;;;;14.13;48.19;100679.81;5140519;27;20055;-70
2022/04/22 04:55:33;;;;;;;7.80;5.85;;;;;;;14.11;48.25;100675.72;5140108;27;20210;-71
2022/04/22 04:58:01;;;;;;;12.18;7.15;;;;;;;14.13;48.35;100676.28;5149831;27;20074;-69
2022/04/22 05:00:30;;;;;;;12.32;7.00;;;;;;;14.11;48.62;100668.44;5135257;27;20478;-68
2022/04/22 05:02:57;;;;;;;11.07;6.30;;;;;;;14.11;48.01;100678.41;5146659;27;20047;-68
2022/04/22 05:05:29;;;;;;;8.60;6.38;;;;;;;14.11;47.89;100681.94;5141485;27;20043;-69
2022/04/22 05:07:59;;;;;;;8.70;6.18;;;;;;;14.10;47.95;100679.50;5151193;27;20051;-68
2022/04/22 05:10:29;;;;;;;10.60;7.05;;;;;;;14.10;48.87;100676.78;5134388;27;20138;-68
2022/04/22 05:12:59;;;;;;;9.25;6.13;;;;;;;13.96;48.47;100660.13;5141463;27;20075;-67
2022/04/22 05:15:28;;;;;;;11.18;7.25;;;;;;;14.05;48.98;100680.22;5150344;27;20089;-67
2022/04/22 05:17:58;;;;;;;10.63;7.25;;;;;;;13.96;48.64;100669.03;5138607;27;20086;-65
2022/04/22 05:20:26;;;;;;;9.05;6.50;;;;;;;13.91;48.24;100660.84;5153321;27;20070;-71
2022/04/22 05:22:54;;;;;;;12.15;7.10;;;;;;;14.01;49.45;100682.63;5126277;27;20326;-69
2022/04/22 05:25:23;;;;;;;12.10;7.30;;;;;;;14.00;48.90;100680.97;5139677;27;20055;-69
2022/04/22 05:27:51;;;;;;;9.77;7.30;;;;;;;13.97;48.96;100684.19;5135580;27;20090;-69
2022/04/22 05:33:06;;;;;;;13.30;7.78;;;;;;;13.95;49.15;100686.31;5143039;27;20058;-69
2022/04/22 05:35:34;;;;;;;12.25;7.50;;;;;;;13.96;49.95;100690.66;5140644;27;20055;-71
2022/04/22 05:38:04;;;;;;;9.02;6.88;;;;;;;13.91;49.12;100681.66;5137651;27;20259;-70
2022/04/22 05:40:34;;;;;;;11.45;7.57;;;;;;;13.96;49.05;100685.25;5138115;27;20047;-70
2022/04/22 05:43:03;;;;;;;15.45;8.05;;;;;;;13.97;49.56;100686.88;5153276;27;20042;-71
2022/04/22 05:45:32;;;;;;;11.57;7.70;;;;;;;13.92;49.02;100681.41;5141275;27;20093;-68
2022/04/22 05:48:00;;;;;;;11.00;7.15;;;;;;;13.87;48.77;100675.94;5132934;27;20110;-69
2022/04/22 05:50:29;;;;;;;10.00;7.55;;;;;;;13.98;48.79;100688.53;5144857;27;20092;-70
2022/04/22 05:52:57;;;;;;;14.82;8.10;;;;;;;13.99;49.15;100692.84;5138373;28;20043;-67
2022/04/22 05:55:27;;;;;;;10.27;7.90;;;;;;;14.00;48.83;100690.97;5141426;28;20437;-70
2022/04/22 05:57:56;;;;;;;14.13;8.18;;;;;;;14.01;49.50;100698.84;5148183;27;20055;-70
2022/04/22 06:00:25;;;;;;;11.00;8.25;;;;;;;14.02;49.37;100695.06;5144304;28;20054;-74
2022/04/22 06:02:56;;;;;;;12.63;8.30;;;;;;;14.04;49.33;100694.00;4782532;27;9999919;-72
2022/04/22 06:05:24;;;;;;;14.27;8.02;;;;;;;13.98;49.47;100690.41;5136600;27;20056;-68
2022/04/22 06:10:35;;;;;;;14.30;8.65;;;;;;;13.98;49.30;100680.41;5142075;27;20042;-74
2022/04/22 06:13:03;;;;;;;11.35;8.30;;;;;;;14.00;49.28;100680.97;5144539;27;20062;-72
2022/04/22 06:15:31;;;;;;;11.18;7.80;;;;;;;14.06;49.44;100692.69;5145538;27;20152;-74
2022/04/22 06:18:01;;;;;;;11.73;8.27;;;;;;;14.06;49.45;100687.28;5140178;27;20058;-73
2022/04/22 06:20:29;;;;;;;12.13;8.20;;;;;;;14.00;49.08;100674.75;5138127;28;20058;-69
2022/04/22 06:22:57;;;;;;;12.98;8.63;;;;;;;14.10;48.92;100693.00;5142987;27;20475;-70
2022/04/22 06:25:25;;;;;;;10.98;7.75;;;;;;;14.11;48.82;100689.22;5142620;27;20085;-70
2022/04/22 06:27:56;;;;;;;11.13;7.72;;;;;;;14.08;49.08;100687.03;5127930;28;20055;-71
2022/04/22 06:30:25;;;;;;;12.73;8.20;;;;;;;14.07;48.83;100688.91;5140645;28;20348;-70
2022/04/22 06:32:55;;;;;;;12.40;8.18;;;;;;;14.08;49.28;100687.03;5129589;28;20043;-70
2022/04/22 06:35:24;;;;;;;10.00;7.43;;;;;;;14.04;48.76;100681.31;5140864;27;20051;-71
2022/04/22 06:37:54;;;;;;;10.93;7.15;;;;;;;14.11;49.40;100683.81;5138605;27;20047;-70
2022/04/22 06:45:56;;;;;;;9.93;7.60;;;;;;;14.15;49.16;100684.97;5145657;27;20043;-68
2022/04/22 06:48:30;;;;;;;12.25;7.75;;;;;;;14.17;49.03;100682.81;5136987;27;20134;-69
2022/04/22 06:51:17;;;;;;;11.82;7.95;;;;;;;14.26;49.36;100690.25;5143478;27;20080;-71
2022/04/22 06:53:47;;;;;;;11.18;8.07;;;;;;;14.22;49.78;100685.59;5141132;27;20035;-71
2022/04/22 06:56:15;;;;;;;11.15;8.25;;;;;;;14.26;49.94;100695.66;5140226;27;20072;-72
2022/04/22 06:58:43;;;;;;;14.35;8.95;;;;;;;14.21;49.52;100679.38;5139113;27;20051;-71
2022/04/22 07:01:11;;;;;;;14.07;8.43;;;;;;;14.32;49.52;100680.34;5139780;27;20066;-64
2022/04/22 07:04:00;;;;;;;14.52;7.95;;;;;;;14.31;50.11;100684.91;5138157;27;20149;-67
2022/04/22 07:06:31;;;;;;;17.75;8.90;;;;;;;14.31;50.02;100681.41;5138363;27;20247;-68
2022/04/22 07:08:59;;;;;;;11.15;8.15;;;;;;;14.39;50.37;100690.97;5138048;27;20071;-67
2022/04/22 07:11:29;;;;;;;15.50;8.20;;;;;;;14.35;49.49;100679.84;5146996;27;20043;-68
2022/04/22 07:14:00;;;;;;;12.85;8.13;;;;;;;14.33;49.76;100679.25;5142625;27;20047;-69
2022/04/22 07:16:28;;;;;;;11.25;8.20;;;;;;;14.31;49.71;100668.69;5142898;27;20043;-67
2022/04/22 07:18:59;;;;;;;16.25;9.10;;;;;;;14.32;49.73;100674.94;5146817;27;20191;-67
2022/04/22 07:21:28;;;;;;;11.30;8.52;;;;;;;14.32;50.08;100681.16;5132059;27;20047;-68
2022/04/22 07:23:59;;;;;;;14.07;8.23;;;;;;;14.33;49.78;100676.56;5143165;27;20167;-68
2022/04/22 07:26:27;;;;;;;10.98;7.72;;;;;;;14.38;50.44;100671.22;5146526;27;20058;-68
2022/04/22 07:28:58;;;;;;;12.80;7.50;;;;;;;14.40;49.87;100662.84;5145416;27;20051;-69
2022/04/22 07:31:30;;;;;;;10.98;7.63;;;;;;;14.42;49.90;100668.88;5144788;27;20352;-69
2022/04/22 07:33:58;;;;;;;13.25;8.05;;;;;;;14.39;50.21;100661.22;5136490;27;20047;-68
2022/04/22 07:36:28;;;;;;;11.65;7.75;;;;;;;14.41;50.31;100665.31;5139577;27;20100;-68
2022/04/22 07:38:56;;;;;;;12.38;8.18;;;;;;;14.41;49.96;100670.72;5144677;27;20051;-69
2022/04/22 07:41:30;;;;;;;13.15;8.57;;;;;;;14.41;49.86;100669.91;5139396;27;20408;-69
2022/04/22 07:46:58;;;;;;;13.38;7.50;;;;;;;14.52;50.17;100669.00;5145761;27;20051;-69
2022/04/22 07:49:28;;;;;;;11.05;7.65;;;;;;;14.56;50.08;100670.94;5140286;27;20044;-67
2022/04/22 07:51:56;;;;;;;10.63;6.95;;;;;;;14.57;49.70;100666.34;5145730;27;20050;-69
2022/04/22 07:54:27;;;;;;;9.65;7.57;;;;;;;14.53;49.95;100662.50;5140466;27;20047;-68
2022/04/22 07:56:56;;;;;;;13.35;7.97;;;;;;;14.49;50.10;100664.91;5145784;27;20047;-66
2022/04/22 07:59:26;;;;;;;12.23;8.73;;;;;;;14.49;50.12;100669.50;5137897;27;20055;-69
2022/04/22 08:01:54;;;;;;;10.27;7.70;;;;;;;14.49;50.24;100670.31;5140972;27;20038;-69
2022/04/22 08:04:22;;;;;;;10.88;8.18;;;;;;;14.48;50.59;100665.97;5144287;27;20137;-70
2022/04/22 08:06:50;;;;;;;12.90;7.93;;;;;;;14.46;50.14;100661.88;5145548;27;20039;-67
2022/04/22 08:09:38;;;;;;;12.85;8.23;;;;;;;14.49;50.64;100656.78;5137947;27;20467;-67
2022/04/22 08:12:09;;;;;;;12.43;8.63;;;;;;;14.49;50.65;100656.78;5142786;27;20066;-68
2022/04/22 08:14:37;;;;;;;11.05;8.45;;;;;;;14.49;50.64;100653.25;5145694;27;20198;-68
2022/04/22 08:17:05;;;;;;;11.07;8.38;;;;;;;14.49;50.49;100658.69;5136589;27;20085;-70
2022/04/22 08:19:32;;;;;;;10.70;7.57;;;;;;;14.48;50.31;100654.34;5135294;27;20096;-69
2022/04/22 08:22:00;;;;;;;10.20;8.07;;;;;;;14.47;51.02;100655.41;5143187;27;20047;-67
2022/04/22 08:24:29;;;;;;;14.45;7.95;;;;;;;14.47;50.71;100658.09;5141525;27;20129;-68
2022/04/22 08:26:58;;;;;;;11.95;7.75;;;;;;;14.48;51.06;100651.63;5143756;27;20043;-66
2022/04/22 08:29:27;;;;;;;12.85;8.00;;;;;;;14.49;50.69;100647.84;5149279;27;20086;-71
2022/04/22 08:31:55;;;;;;;12.52;8.77;;;;;;;14.48;50.75;100643.53;5137688;27;20043;-68
2022/04/22 08:34:23;;;;;;;9.80;7.10;;;;;;;14.47;50.88;100634.59;5141219;27;20043;-68
2022/04/22 08:36:51;;;;;;;12.25;7.78;;;;;;;14.47;51.17;100639.19;5145267;27;20077;-68
2022/04/22 08:39:19;;;;;;;8.95;7.30;;;;;;;14.47;51.08;100626.47;5143781;27;20043;-68
2022/04/22 08:41:48;;;;;;;9.48;7.10;;;;;;;14.47;50.77;100615.66;5145520;27;20078;-68
2022/04/22 08:44:17;;;;;;;11.32;8.88;;;;;;;14.49;51.03;100615.41;5143004;27;20449;-68
2022/04/22 08:52:20;;;;;;;9.75;6.85;;;;;;;14.48;50.59;100622.69;5135794;27;20047;-67
2022/04/22 08:54:50;;;;;;;10.55;7.65;;;;;;;14.53;50.72;100632.75;5143256;27;20074;-68
2022/04/22 08:57:20;;;;;;;12.13;7.22;;;;;;;14.55;50.99;100634.16;5145313;27;20073;-68
2022/04/22 08:59:48;;;;;;;11.55;7.22;;;;;;;14.57;51.08;100633.88;5144757;27;20066;-68
2022/04/22 09:02:18;;;;;;;11.60;6.93;;;;;;;14.57;50.53;100625.78;5132327;27;20480;-68
2022/04/22 09:04:46;;;;;;;8.80;6.50;;;;;;;14.60;50.61;100633.38;5131288;27;20039;-68
2022/04/22 09:07:16;;;;;;;10.70;7.07;;;;;;;14.61;51.05;100624.19;5142941;27;20463;-67
2022/04/22 09:09:49;;;;;;;9.20;6.28;;;;;;;14.63;50.52;100630.16;5144079;27;20054;-68
2022/04/22 09:12:20;;;;;;;8.45;6.38;;;;;;;14.65;50.68;100615.31;5140835;27;20047;-67
2022/04/22 09:14:49;;;;;;;9.70;6.22;;;;;;;14.66;50.73;100616.13;5144106;27;20115;-68
2022/04/22 09:17:23;;;;;;;10.43;7.05;;;;;;;14.65;50.64;100617.22;5140301;27;20043;-67
2022/04/22 09:19:53;;;;;;;9.10;6.03;;;;;;;14.67;50.54;100619.66;5134037;27;20078;-68
2022/04/22 09:22:22;;;;;;;8.88;6.30;;;;;;;14.64;50.43;100610.16;5133827;27;20082;-68
2022/04/22 09:24:51;;;;;;;9.18;6.22;;;;;;;14.70;50.36;100611.84;5143994;27;20043;-68
2022/04/22 09:27:20;;;;;;;7.07;5.78;;;;;;;14.71;50.14;100615.38;5136319;27;20465;-67
2022/04/22 09:29:53;;;;;;;7.10;5.70;;;;;;;14.72;50.38;100617.00;5143578;27;20054;-67
2022/04/22 09:32:28;;;;;;;14.60;6.68;;;;;;;14.73;50.63;100603.22;5142226;27;20099;-67
2022/04/22 09:34:57;;;;;;;7.35;5.63;;;;;;;14.73;50.25;100603.22;5137169;27;20134;-68
2022/04/22 09:42:57;;;;;;;8.25;6.45;;;;;;;14.73;50.72;100588.88;5145041;27;20072;-67
2022/04/22 09:45:36;;;;;;;9.98;6.57;;;;;;;14.70;50.81;100578.56;5144588;27;20046;-67
2022/04/22 09:48:13;;;;;;;9.70;6.57;;;;;;;14.73;50.23;100576.19;5143905;27;20046;-68
2022/04/22 09:50:43;;;;;;;9.00;6.53;;;;;;;14.77;50.30;100576.47;5141527;27;20092;-66
2022/04/22 09:53:12;;;;;;;8.02;5.78;;;;;;;14.78;50.45;100581.63;5152104;27;20239;-67
2022/04/22 09:55:52;;;;;;;9.43;6.18;;;;;;;14.80;50.51;100571.38;5142208;28;20058;-67
2022/04/22 09:58:24;;;;;;;6.57;5.60;;;;;;;14.80;50.32;100560.56;5143031;28;20076;-67
2022/04/22 10:00:58;;;;;;;8.13;5.47;;;;;;;14.83;50.56;100570.03;5147048;27;20066;-70
2022/04/22 10:03:28;;;;;;;7.65;5.53;;;;;;;14.85;49.98;100573.31;5144763;27;20051;-67
2022/04/22 10:05:57;;;;;;;9.55;6.28;;;;;;;14.85;50.39;100573.31;5156809;27;20059;-67
2022/04/22 10:08:25;;;;;;;8.35;5.95;;;;;;;14.85;50.27;100566.00;5141579;27;20082;-69
2022/04/22 10:10:55;;;;;;;9.05;6.53;;;;;;;14.83;50.02;100568.16;5136947;28;20051;-66
2022/04/22 10:13:26;;;;;;;7.40;5.97;;;;;;;14.83;50.03;100565.44;5137993;27;20083;-65
2022/04/22 10:15:54;;;;;;;7.53;5.45;;;;;;;14.84;50.03;100568.97;5134535;27;20062;-66
2022/04/22 10:18:23;;;;;;;8.02;6.03;;;;;;;14.83;50.12;100559.22;5149455;27;20050;-67
2022/04/22 10:20:54;;;;;;;11.57;6.72;;;;;;;14.84;50.27;100561.69;5144012;27;20074;-66
2022/04/22 10:23:23;;;;;;;9.02;5.90;;;;;;;14.84;50.43;100558.16;5143296;27;20490;-66
2022/04/22 10:25:51;;;;;;;8.80;6.22;;;;;;;14.84;50.35;100552.75;5144951;27;20059;-66
2022/04/22 10:28:19;;;;;;;9.98;6.13;;;;;;;14.86;50.11;100550.59;5143666;27;20055;-66
2022/04/22 10:30:50;;;;;;;8.43;5.72;;;;;;;14.88;50.05;100554.69;5146227;27;20054;-66
2022/04/22 10:33:18;;;;;;;8.27;6.35;;;;;;;14.93;50.11;100548.50;5143153;27;20039;-67
2022/04/22 10:35:47;;;;;;;7.82;5.63;;;;;;;14.95;50.40;100547.16;5153591;27;20043;-66
2022/04/22 10:38:38;;;;;;;10.10;6.60;;;;;;;14.95;50.27;100539.03;5149407;27;20047;-65
2022/04/22 10:41:14;;;;;;;7.20;5.55;;;;;;;14.93;50.30;100537.66;4781551;27;10000082;-67
2022/04/22 10:43:42;;;;;;;7.03;5.75;;;;;;;15.01;49.83;100544.50;5144092;27;20070;-66
2022/04/22 10:49:12;;;;;;;8.60;5.80;;;;;;;15.03;49.86;100531.53;5136399;27;20139;-66
2022/04/22 10:52:00;;;;;;;12.52;6.80;;;;;;;15.03;49.90;100535.03;5143224;27;20086;-67
2022/04/22 10:55:05;;;;;;;8.63;6.70;;;;;;;15.04;49.79;100528.56;5141917;27;20075;-67
2022/04/22 10:57:34;;;;;;;9.73;6.50;;;;;;;15.03;49.46;100520.69;5131303;27;20811;-67
2022/04/22 11:00:05;;;;;;;8.23;5.85;;;;;;;15.05;49.71;100535.59;5129432;27;20178;-67
2022/04/22 11:02:35;;;;;;;9.27;6.15;;;;;;;14.95;49.34;100509.28;5142523;27;20314;-67
2022/04/22 11:05:37;;;;;;;7.70;5.60;;;;;;;15.09;49.27;100525.06;5140456;27;20039;-66
2022/04/22 11:08:06;;;;;;;7.72;6.40;;;;;;;15.11;49.49;100515.63;5140091;27;20070;-67
2022/04/22 11:11:01;;;;;;;7.50;6.13;;;;;;;15.14;49.16;100522.41;5139822;27;20205;-67
2022/04/22 11:13:33;;;;;;;6.82;5.60;;;;;;;15.12;49.12;100502.91;5141398;27;20051;-67
2022/04/22 11:16:06;;;;;;;8.13;6.00;;;;;;;15.18;49.41;100512.69;5148969;27;20229;-67
2022/04/22 11:18:35;;;;;;;8.60;5.65;;;;;;;15.19;48.90;100511.59;5141710;27;20108;-67
2022/04/22 11:21:05;;;;;;;7.40;4.93;;;;;;;15.21;49.19;100510.28;5142679;27;20077;-67
2022/04/22 11:23:37;;;;;;;6.20;5.35;;;;;;;15.25;49.08;100515.97;5142723;27;20480;-68
2022/04/22 11:26:05;;;;;;;7.13;5.72;;;;;;;15.26;48.89;100499.47;5134802;27;20047;-66
2022/04/22 11:28:40;;;;;;;6.60;4.93;;;;;;;15.27;48.85;100511.94;5151760;27;20051;-66
2022/04/22 11:31:10;;;;;;;9.63;5.20;;;;;;;15.29;48.88;100503.56;5143279;27;20055;-66
2022/04/22 11:33:49;;;;;;;9.35;5.28;;;;;;;15.32;48.53;100507.63;5152356;27;20260;-67
2022/04/22 11:36:17;;;;;;;6.60;5.45;;;;;;;15.32;48.79;100516.56;5144630;27;20158;-67
2022/04/22 11:38:46;;;;;;;7.57;5.82;;;;;;;15.34;48.87;100508.19;5132762;27;20078;-67
2022/04/22 11:41:14;;;;;;;6.60;4.90;;;;;;;15.34;48.55;100508.19;5147471;27;20057;-67
2022/04/22 11:43:44;;;;;;;7.13;5.20;;;;;;;15.35;48.65;100510.63;5150470;27;20078;-67
2022/04/22 11:46:13;;;;;;;7.35;4.95;;;;;;;15.35;48.46;100507.94;5132702;27;20498;-67
2022/04/22 11:48:49;;;;;;;7.47;4.97;;;;;;;15.33;48.38;100495.72;5134155;27;20082;-66
2022/04/22 11:51:20;;;;;;;7.38;4.50;;;;;;;15.35;48.48;100494.38;5138167;27;20058;-65
2022/04/22 11:53:49;;;;;;;6.85;5.22;;;;;;;15.33;48.49;100495.72;5153827;27;20062;-64
2022/04/22 11:56:19;;;;;;;5.82;4.45;;;;;;;15.39;48.44;100489.25;5147542;27;20114;-65
2022/04/22 11:58:52;;;;;;;10.48;5.57;;;;;;;15.40;48.39;100486.28;5145087;27;20046;-67
2022/04/22 12:06:57;;;;;;;7.00;5.47;;;;;;;15.39;48.31;100487.38;5142805;27;20039;-64
2022/04/22 12:09:25;;;;;;;7.00;5.40;;;;;;;15.41;48.31;100489.81;5152961;27;20047;-64
2022/04/22 12:11:53;;;;;;;10.07;5.47;;;;;;;15.40;48.09;100480.88;5148523;27;20047;-64
2022/04/22 12:14:28;;;;;;;6.63;4.90;;;;;;;15.43;48.29;100482.25;5147725;27;20043;-64
2022/04/22 12:16:57;;;;;;;7.70;5.05;;;;;;;15.44;48.25;100471.16;5138137;27;20057;-65
2022/04/22 12:19:26;;;;;;;7.38;4.95;;;;;;;15.46;48.18;100479.00;5138129;27;20511;-64
2022/04/22 12:21:54;;;;;;;9.38;5.43;;;;;;;15.47;48.53;100477.94;5141702;27;20039;-64
2022/04/22 12:24:22;;;;;;;9.13;5.72;;;;;;;15.46;48.63;100477.13;5146608;27;20043;-64
2022/04/22 12:26:51;;;;;;;6.82;5.55;;;;;;;15.47;48.41;100484.16;5157134;27;20044;-64
2022/04/22 12:29:21;;;;;;;7.88;5.28;;;;;;;15.45;48.22;100478.19;5138520;27;20051;-66
2022/04/22 12:31:53;;;;;;;7.63;5.05;;;;;;;15.51;48.43;100481.75;5142542;27;20465;-67
2022/04/22 12:34:30;;;;;;;6.55;4.60;;;;;;;15.51;48.34;100469.03;5147020;27;20055;-65